Time;durP1;ratioP1;P1;durP2;ratioP2;P2;SDS_P1;SDS_P2;PMS_P1;PMS_P2;Temp;Humidity;BMP_temperature;BMP_pressure;BME280_temperature;BME280_humidity;BME280_pressure;Samples;Min_cycle;Max_cycle;Signal;HPM_P1;HPM_P2
2023/11/03 00:01:28;;;;;;;21.67;10.07;;;;;;;15.27;99.02;99073.06;5119043;27;20209;-64
2023/11/03 00:03:54;;;;;;;19.17;8.95;;;;;;;15.42;98.39;99083.50;5120440;27;20046;-64
2023/11/03 00:06:20;;;;;;;14.70;8.95;;;;;;;15.50;98.21;99076.06;5119266;27;20039;-63
2023/11/03 00:08:46;;;;;;;15.13;8.00;;;;;;;15.61;97.42;99078.16;5120139;27;20038;-64
2023/11/03 00:11:11;;;;;;;14.35;8.48;;;;;;;15.53;98.03;99064.16;5119004;27;20085;-63
2023/11/03 00:13:37;;;;;;;15.35;7.90;;;;;;;15.51;98.19;99052.88;5119341;27;20136;-64
2023/11/03 00:16:04;;;;;;;13.70;7.45;;;;;;;15.36;99.52;99049.66;5119504;27;20073;-63
2023/11/03 00:18:29;;;;;;;15.23;7.90;;;;;;;15.24;100.00;99047.63;5117596;27;20263;-63
2023/11/03 00:20:55;;;;;;;13.55;7.25;;;;;;;15.17;100.00;99060.16;5119586;27;20039;-64
2023/11/03 00:23:22;;;;;;;13.00;7.55;;;;;;;15.20;100.00;99069.59;5118491;27;20408;-63
2023/11/03 00:25:49;;;;;;;11.80;7.97;;;;;;;15.42;100.00;99075.47;5119193;27;20035;-64
2023/11/03 00:28:15;;;;;;;12.82;7.05;;;;;;;15.54;99.87;99063.94;5119258;27;20104;-64
2023/11/03 00:30:40;;;;;;;11.00;6.85;;;;;;;15.41;100.00;99064.00;5118637;27;20026;-64
2023/11/03 00:33:06;;;;;;;11.48;6.55;;;;;;;15.31;100.00;99052.94;5119421;28;20067;-63
2023/11/03 00:35:34;;;;;;;11.73;6.30;;;;;;;15.35;100.00;99054.16;5118838;28;20302;-63
2023/11/03 00:38:00;;;;;;;9.70;6.53;;;;;;;15.23;100.00;99055.84;5117498;28;20153;-63
2023/11/03 00:40:25;;;;;;;10.93;6.65;;;;;;;15.19;100.00;99057.28;5118656;27;20023;-63
2023/11/03 00:42:51;;;;;;;13.00;7.00;;;;;;;15.27;100.00;99054.38;5118156;27;20039;-64
2023/11/03 00:45:17;;;;;;;11.90;7.00;;;;;;;15.41;100.00;99058.66;5118485;27;20051;-64
2023/11/03 00:47:42;;;;;;;12.75;6.70;;;;;;;15.64;100.00;99060.91;5118680;28;20074;-63
2023/11/03 00:50:09;;;;;;;11.88;6.90;;;;;;;15.77;98.66;99055.50;5118555;28;20031;-63
2023/11/03 00:52:35;;;;;;;14.82;7.40;;;;;;;15.82;97.73;99053.03;5117471;28;20258;-63
2023/11/03 00:55:00;;;;;;;12.05;7.20;;;;;;;15.70;98.23;99046.72;5118010;28;20043;-63
2023/11/03 00:57:26;;;;;;;12.65;7.00;;;;;;;15.73;98.04;99048.13;5119355;28;20048;-64
2023/11/03 00:59:51;;;;;;;13.13;6.97;;;;;;;15.84;97.45;99058.16;5118086;28;20027;-63
2023/11/03 01:02:17;;;;;;;14.50;6.72;;;;;;;15.78;97.86;99061.66;5117936;28;20039;-64
2023/11/03 01:04:43;;;;;;;13.05;6.53;;;;;;;15.87;97.54;99071.06;5119096;28;20259;-63
2023/11/03 01:07:08;;;;;;;11.80;6.55;;;;;;;15.94;97.57;99075.34;5118779;28;20043;-64
2023/11/03 01:09:34;;;;;;;12.82;7.05;;;;;;;15.92;97.51;99065.91;5119877;28;20032;-64
2023/11/03 01:12:00;;;;;;;10.13;6.15;;;;;;;15.73;98.25;99051.63;5119135;28;20371;-63
2023/11/03 01:14:25;;;;;;;8.75;6.13;;;;;;;15.57;98.42;99026.19;5119178;28;20047;-63
2023/11/03 01:16:50;;;;;;;11.57;6.30;;;;;;;15.42;98.61;99025.63;5117835;28;20038;-63
2023/11/03 01:19:20;;;;;;;11.75;6.60;;;;;;;15.27;99.57;99023.19;5118660;28;20037;-63
2023/11/03 01:21:46;;;;;;;14.77;6.70;;;;;;;15.11;100.00;99012.16;5118637;28;20040;-63
2023/11/03 01:24:11;;;;;;;12.73;6.45;;;;;;;15.12;100.00;99035.13;5118154;28;20062;-63
2023/11/03 01:26:38;;;;;;;13.80;7.20;;;;;;;15.21;100.00;99048.03;5116961;28;20036;-63
2023/11/03 01:29:07;;;;;;;11.80;6.68;;;;;;;15.39;100.00;99058.03;5117282;28;20102;-63
2023/11/03 01:31:33;;;;;;;12.45;7.20;;;;;;;15.57;99.43;99076.91;5117181;28;20036;-63
2023/11/03 01:33:59;;;;;;;10.40;7.07;;;;;;;15.68;98.28;99096.00;5118247;28;20046;-63
2023/11/03 01:36:25;;;;;;;14.05;6.53;;;;;;;15.77;97.49;99100.88;5118921;28;20080;-64
2023/11/03 01:38:51;;;;;;;12.02;7.03;;;;;;;15.85;96.82;99089.16;5118278;28;20047;-64
2023/11/03 01:41:17;;;;;;;14.05;6.85;;;;;;;15.92;96.73;99092.59;5117684;28;20036;-64
2023/11/03 01:44:09;;;;;;;11.60;7.22;;;;;;;16.00;96.14;99096.88;5117512;28;20036;-64
2023/11/03 01:46:39;;;;;;;11.85;6.60;;;;;;;16.08;95.86;99078.78;5117367;28;20058;-64
2023/11/03 01:49:06;;;;;;;15.40;10.23;;;;;;;16.13;95.17;99062.09;5115739;28;20370;-63
2023/11/03 01:51:33;;;;;;;14.48;8.40;;;;;;;16.19;94.57;99056.72;5117341;28;20147;-63
2023/11/03 01:53:59;;;;;;;9.05;5.82;;;;;;;16.23;94.41;99046.44;5113931;27;20237;-64
2023/11/03 01:56:26;;;;;;;12.55;6.25;;;;;;;16.21;94.41;99033.28;5118966;27;20094;-63
2023/11/03 01:58:52;;;;;;;12.48;6.40;;;;;;;16.23;94.00;99033.06;5121641;27;20031;-63
2023/11/03 02:01:18;;;;;;;15.45;7.00;;;;;;;16.23;93.97;99047.25;5121771;27;20378;-65
2023/11/03 02:03:44;;;;;;;15.93;6.65;;;;;;;16.19;93.55;99061.25;5121662;27;20156;-64
2023/11/03 02:06:10;;;;;;;13.80;6.68;;;;;;;16.14;93.53;99080.59;5121616;27;20030;-64
2023/11/03 02:08:35;;;;;;;12.38;7.32;;;;;;;16.05;94.60;99081.03;5122360;27;20035;-64
2023/11/03 02:11:01;;;;;;;13.85;7.78;;;;;;;16.14;93.78;99085.09;5121159;27;20028;-63
2023/11/03 02:13:30;;;;;;;14.18;8.07;;;;;;;15.98;93.54;99083.75;5120528;27;20051;-63
2023/11/03 02:15:56;;;;;;;16.77;8.45;;;;;;;16.09;93.04;99079.59;5113464;27;20059;-63
2023/11/03 02:18:22;;;;;;;16.17;9.30;;;;;;;16.09;93.08;99077.72;5121760;27;20043;-63
2023/11/03 02:20:47;;;;;;;15.85;9.55;;;;;;;15.83;93.15;99085.88;5121741;27;20055;-64
2023/11/03 02:23:12;;;;;;;19.60;11.25;;;;;;;15.73;93.31;99088.16;5121961;27;20092;-63
2023/11/03 02:25:38;;;;;;;18.70;10.02;;;;;;;15.78;93.22;99086.50;5121120;27;20146;-64
2023/11/03 02:28:03;;;;;;;19.52;10.90;;;;;;;15.78;93.16;99093.69;5121640;27;20084;-64
2023/11/03 02:30:29;;;;;;;18.77;10.35;;;;;;;15.69;93.24;99085.09;5121787;27;20299;-64
2023/11/03 02:32:54;;;;;;;18.02;10.43;;;;;;;15.74;93.03;99084.47;5121129;27;20431;-64
2023/11/03 02:35:19;;;;;;;18.35;10.95;;;;;;;15.74;92.94;99069.28;5121113;27;20263;-64
2023/11/03 02:37:45;;;;;;;19.30;11.27;;;;;;;15.91;92.16;99077.63;5121841;27;20409;-64
2023/11/03 02:40:12;;;;;;;19.88;11.00;;;;;;;16.01;91.68;99071.81;5121833;27;20034;-64
2023/11/03 02:42:37;;;;;;;20.27;10.88;;;;;;;16.07;90.94;99066.44;5121720;27;20043;-64
2023/11/03 02:45:03;;;;;;;19.92;10.98;;;;;;;16.13;90.59;99059.44;5121987;27;20028;-63
2023/11/03 02:47:29;;;;;;;21.38;10.70;;;;;;;16.21;90.15;99068.00;5120236;27;20036;-64
2023/11/03 02:49:55;;;;;;;19.45;10.55;;;;;;;16.23;89.41;99060.59;5120803;27;20034;-64
2023/11/03 02:52:20;;;;;;;18.35;11.27;;;;;;;16.21;89.56;99060.00;5122066;27;20038;-64
2023/11/03 02:54:46;;;;;;;20.73;11.23;;;;;;;16.18;89.34;99062.28;5121593;27;20378;-64
2023/11/03 02:57:11;;;;;;;21.88;11.18;;;;;;;16.10;89.58;99063.34;5120653;27;20035;-63
2023/11/03 02:59:36;;;;;;;20.58;10.60;;;;;;;16.04;89.78;99063.38;5119978;27;20233;-64
2023/11/03 03:02:03;;;;;;;20.08;11.07;;;;;;;15.93;90.81;99060.34;5120818;27;20027;-64
2023/11/03 03:04:29;;;;;;;18.23;10.73;;;;;;;15.93;91.17;99067.56;5121216;27;20036;-64
2023/11/03 03:06:54;;;;;;;17.52;10.85;;;;;;;15.97;90.97;99060.75;5119755;27;20036;-63
2023/11/03 03:09:20;;;;;;;20.45;10.65;;;;;;;15.96;91.77;99069.78;5120227;27;20103;-64
2023/11/03 03:11:45;;;;;;;21.35;10.90;;;;;;;15.89;92.79;99061.81;5119978;27;20042;-64
2023/11/03 03:14:11;;;;;;;18.63;10.90;;;;;;;15.87;92.92;99053.19;5121478;27;20031;-64
2023/11/03 03:16:37;;;;;;;18.02;10.20;;;;;;;15.71;94.43;99047.53;5119925;27;20324;-64
2023/11/03 03:19:03;;;;;;;20.48;9.75;;;;;;;15.67;95.28;99048.97;5102764;28;20067;-64
2023/11/03 03:21:28;;;;;;;18.70;10.00;;;;;;;15.67;96.10;99039.13;5120631;27;20409;-63
2023/11/03 03:23:54;;;;;;;18.63;9.93;;;;;;;15.67;96.26;99012.44;5119748;27;20039;-64
2023/11/03 03:26:19;;;;;;;15.13;8.88;;;;;;;15.65;96.87;99019.84;5120145;27;20046;-64
2023/11/03 03:28:45;;;;;;;19.67;9.90;;;;;;;15.63;97.04;99035.25;5119737;27;20054;-63
2023/11/03 03:31:10;;;;;;;15.35;8.50;;;;;;;15.61;97.50;99018.63;5120650;27;20233;-64
2023/11/03 03:33:35;;;;;;;18.85;9.13;;;;;;;15.73;97.25;99016.94;5119320;27;20248;-63
2023/11/03 03:36:01;;;;;;;16.48;8.82;;;;;;;15.69;97.57;99009.56;5119833;27;20036;-63
2023/11/03 03:38:26;;;;;;;13.82;8.07;;;;;;;15.71;97.42;99004.81;5119044;27;20051;-63
2023/11/03 03:40:52;;;;;;;15.60;8.90;;;;;;;15.70;97.63;99011.19;5120038;27;20046;-63
2023/11/03 03:43:17;;;;;;;18.90;9.60;;;;;;;15.78;96.93;99017.09;5121263;27;20054;-64
2023/11/03 03:45:44;;;;;;;14.30;8.73;;;;;;;15.79;96.78;98997.38;5120722;27;20045;-64
2023/11/03 03:48:09;;;;;;;13.85;8.15;;;;;;;15.79;96.67;99004.56;5120995;27;20058;-63
2023/11/03 03:50:34;;;;;;;21.52;9.25;;;;;;;15.90;95.98;99014.56;5117956;27;20346;-64
2023/11/03 03:53:00;;;;;;;12.85;8.05;;;;;;;15.92;96.01;99013.34;5120792;27;20047;-63
2023/11/03 03:55:26;;;;;;;14.40;7.82;;;;;;;16.01;95.08;98994.38;5120565;27;20043;-64
2023/11/03 03:57:51;;;;;;;12.70;7.97;;;;;;;16.05;95.16;99006.28;5120301;27;20039;-63
2023/11/03 04:00:18;;;;;;;16.27;8.27;;;;;;;16.11;94.49;99005.41;5119889;27;20032;-64
2023/11/03 04:02:44;;;;;;;14.98;8.27;;;;;;;16.11;94.14;98990.22;5119585;27;20032;-64
2023/11/03 04:05:10;;;;;;;13.52;8.10;;;;;;;16.14;93.66;98995.13;5118790;27;20131;-64
2023/11/03 04:07:35;;;;;;;12.95;8.35;;;;;;;16.14;93.76;98995.13;5119923;27;20798;-63
2023/11/03 04:10:00;;;;;;;16.20;8.43;;;;;;;16.14;93.72;98979.09;5119087;27;20202;-63
2023/11/03 04:12:26;;;;;;;17.45;8.70;;;;;;;16.18;93.62;98982.16;5118890;27;20031;-64
2023/11/03 04:14:51;;;;;;;14.02;8.38;;;;;;;16.14;93.73;98983.63;5118741;27;20027;-63
2023/11/03 04:17:17;;;;;;;13.40;8.15;;;;;;;16.15;93.99;98978.06;5118272;27;20090;-63
2023/11/03 04:19:42;;;;;;;14.90;9.15;;;;;;;16.12;94.20;98981.16;5119108;27;20680;-63
2023/11/03 04:22:08;;;;;;;18.90;8.48;;;;;;;16.02;94.86;98988.00;5114782;27;20035;-64
2023/11/03 04:24:33;;;;;;;15.00;8.98;;;;;;;16.10;94.99;98993.09;5119075;28;20043;-64
2023/11/03 04:26:59;;;;;;;11.90;8.25;;;;;;;16.15;94.47;98999.44;5119000;27;20030;-63
2023/11/03 04:29:24;;;;;;;14.23;7.78;;;;;;;16.08;94.66;98979.97;5119311;28;20027;-64
2023/11/03 04:31:49;;;;;;;16.30;9.35;;;;;;;16.25;94.60;98991.75;5119664;27;20027;-64
2023/11/03 04:34:15;;;;;;;14.88;9.32;;;;;;;16.24;94.46;98987.44;5118660;27;20046;-63
2023/11/03 04:36:41;;;;;;;14.90;7.97;;;;;;;16.17;94.03;98983.19;5118678;27;20023;-64
2023/11/03 04:39:06;;;;;;;13.45;8.18;;;;;;;16.14;94.09;98988.97;5119393;27;20035;-63
2023/11/03 04:41:31;;;;;;;13.77;8.57;;;;;;;16.19;94.11;98981.94;5119421;27;20321;-64
2023/11/03 04:43:57;;;;;;;15.48;8.75;;;;;;;16.13;94.44;98972.13;5119288;28;20096;-63
2023/11/03 04:46:23;;;;;;;17.05;8.80;;;;;;;16.01;95.03;98973.84;5120052;28;20039;-63
2023/11/03 04:48:49;;;;;;;14.77;8.48;;;;;;;16.05;94.55;98976.91;5118968;28;20054;-63
2023/11/03 04:51:15;;;;;;;14.18;9.18;;;;;;;16.02;94.87;98977.34;5119698;28;20341;-63
2023/11/03 04:53:41;;;;;;;18.52;10.25;;;;;;;16.11;94.08;98990.22;5118075;28;20027;-63
2023/11/03 04:56:06;;;;;;;19.45;10.77;;;;;;;16.06;90.40;98997.22;5117830;28;20350;-64
2023/11/03 04:58:32;;;;;;;18.83;11.00;;;;;;;15.97;89.65;98999.34;5117025;28;20031;-64
2023/11/03 05:00:57;;;;;;;23.17;11.10;;;;;;;15.91;90.07;98993.00;5118588;28;20087;-63
2023/11/03 05:03:23;;;;;;;19.80;11.60;;;;;;;15.92;90.30;99008.00;5119566;28;20277;-64
2023/11/03 05:05:48;;;;;;;21.55;10.93;;;;;;;15.99;90.67;99017.81;5119698;28;20032;-64
2023/11/03 05:08:14;;;;;;;22.88;11.00;;;;;;;16.05;90.73;99012.44;5119096;28;20092;-64
2023/11/03 05:10:40;;;;;;;22.55;10.05;;;;;;;16.11;90.74;99013.44;5118099;28;20036;-63
2023/11/03 05:13:06;;;;;;;17.20;10.27;;;;;;;16.16;90.55;99010.94;5118047;28;20107;-63
2023/11/03 05:15:32;;;;;;;21.45;10.23;;;;;;;16.19;90.38;99011.31;5117919;28;20031;-64
2023/11/03 05:17:58;;;;;;;20.25;10.50;;;;;;;16.22;90.11;99005.53;5118180;28;20035;-64
2023/11/03 05:20:27;;;;;;;17.35;10.27;;;;;;;16.20;89.93;99002.25;5117720;28;20027;-63
2023/11/03 05:22:53;;;;;;;24.33;10.95;;;;;;;16.21;89.74;99011.09;5118524;28;20046;-63
2023/11/03 05:25:19;;;;;;;18.48;10.27;;;;;;;16.16;89.92;99005.59;5117857;28;20032;-63
2023/11/03 05:27:44;;;;;;;37.78;13.25;;;;;;;16.17;90.89;99007.22;5117512;28;20237;-63
2023/11/03 05:30:10;;;;;;;19.60;11.07;;;;;;;16.10;90.83;99017.13;5119601;28;20043;-63
2023/11/03 05:32:36;;;;;;;47.58;13.82;;;;;;;16.13;90.95;99022.03;5120709;27;20040;-64
2023/11/03 05:35:02;;;;;;;25.65;11.25;;;;;;;16.18;91.18;99019.53;5121488;27;20092;-63
2023/11/03 05:37:27;;;;;;;21.42;10.05;;;;;;;16.18;91.13;99001.66;5120584;27;20058;-63
2023/11/03 05:39:53;;;;;;;22.10;11.38;;;;;;;16.18;91.34;99000.84;5120621;27;20024;-63
2023/11/03 05:42:18;;;;;;;20.75;9.88;;;;;;;16.23;91.57;99015.19;5120385;27;20035;-63
2023/11/03 05:44:44;;;;;;;15.82;9.68;;;;;;;16.24;91.74;99016.00;5122172;27;20321;-63
2023/11/03 05:47:10;;;;;;;21.95;9.93;;;;;;;16.12;92.60;98993.69;5121377;27;20032;-63
2023/11/03 05:49:35;;;;;;;20.20;10.43;;;;;;;16.13;92.87;98990.00;5120667;27;20035;-63
2023/11/03 05:52:01;;;;;;;19.73;9.93;;;;;;;16.06;94.05;98990.03;5121314;27;20378;-63
2023/11/03 05:54:26;;;;;;;23.13;10.70;;;;;;;15.98;95.20;98994.81;5120796;27;20032;-63
2023/11/03 05:56:52;;;;;;;21.40;10.43;;;;;;;16.07;95.50;99005.03;5121140;27;20029;-64
2023/11/03 05:59:17;;;;;;;22.55;10.40;;;;;;;16.13;95.98;99014.03;5103045;27;20044;-64
2023/11/03 06:01:43;;;;;;;29.95;11.45;;;;;;;16.16;96.29;99030.44;5120874;27;20054;-64
2023/11/03 06:04:09;;;;;;;33.13;11.32;;;;;;;16.18;96.86;99028.38;5121798;27;20083;-64
2023/11/03 06:06:34;;;;;;;38.90;14.70;;;;;;;16.23;96.97;99025.88;5121187;27;20217;-65
2023/11/03 06:09:00;;;;;;;44.75;14.70;;;;;;;16.28;96.46;99009.19;5120570;27;20035;-64
2023/11/03 06:11:25;;;;;;;50.17;16.02;;;;;;;16.31;96.40;99000.75;5121227;27;20038;-63
2023/11/03 06:13:51;;;;;;;48.88;17.42;;;;;;;16.33;96.28;99004.03;5121036;27;20042;-64
2023/11/03 06:16:20;;;;;;;61.80;17.73;;;;;;;16.36;95.48;99006.25;5119683;27;20042;-64
2023/11/03 06:18:46;;;;;;;61.35;17.48;;;;;;;16.36;95.09;98989.41;5120491;27;20237;-63
2023/11/03 06:21:11;;;;;;;54.78;19.05;;;;;;;16.37;95.23;98988.38;5120262;27;20039;-63
2023/11/03 06:23:37;;;;;;;57.40;17.60;;;;;;;16.34;96.38;98976.28;5120054;27;20035;-63
2023/11/03 06:26:06;;;;;;;38.15;14.35;;;;;;;16.16;98.45;98971.69;5119887;27;20031;-63
2023/11/03 06:28:32;;;;;;;37.20;13.77;;;;;;;16.06;99.88;98984.69;5120635;27;20044;-63
2023/11/03 06:30:58;;;;;;;39.85;14.27;;;;;;;16.03;100.00;98977.13;5120892;27;20148;-63
2023/11/03 06:33:23;;;;;;;38.58;12.75;;;;;;;15.75;100.00;98976.69;5120498;27;20235;-63
2023/11/03 06:35:50;;;;;;;51.10;14.95;;;;;;;15.86;100.00;98974.13;5121326;27;20199;-63
2023/11/03 06:38:15;;;;;;;47.13;15.43;;;;;;;15.92;100.00;98972.47;5119285;27;20039;-63
2023/11/03 06:40:41;;;;;;;33.83;14.77;;;;;;;15.57;100.00;98969.31;5119449;27;20031;-63
2023/11/03 06:43:06;;;;;;;50.03;15.43;;;;;;;15.39;100.00;98959.34;5119617;27;20044;-63
2023/11/03 06:45:32;;;;;;;45.38;15.55;;;;;;;15.17;100.00;98948.16;5119664;27;20076;-63
2023/11/03 06:47:59;;;;;;;51.03;17.02;;;;;;;14.93;100.00;98944.34;5118993;27;20110;-64
2023/11/03 06:50:24;;;;;;;53.20;18.38;;;;;;;14.79;100.00;98944.56;5119437;27;20035;-64
2023/11/03 06:52:50;;;;;;;53.95;18.63;;;;;;;14.79;100.00;98942.72;5119882;27;20034;-63
2023/11/03 06:55:19;;;;;;;46.85;17.23;;;;;;;14.67;100.00;98937.22;5119939;27;21213;-64
2023/11/03 06:57:47;;;;;;;53.45;18.42;;;;;;;14.87;100.00;98949.69;5119948;27;20066;-64
2023/11/03 07:00:13;;;;;;;52.70;18.77;;;;;;;14.69;100.00;98947.66;5119313;27;20046;-63
2023/11/03 07:02:39;;;;;;;52.08;20.10;;;;;;;14.82;100.00;98950.31;5119457;27;20039;-63
2023/11/03 07:05:05;;;;;;;57.05;19.27;;;;;;;14.93;100.00;98951.50;5119097;27;20030;-63
2023/11/03 07:07:32;;;;;;;52.42;19.25;;;;;;;14.98;100.00;98957.84;5119705;27;20100;-63
2023/11/03 07:09:59;;;;;;;49.42;19.42;;;;;;;15.08;100.00;98962.75;5119673;27;20318;-63
2023/11/03 07:12:24;;;;;;;45.28;17.55;;;;;;;15.10;100.00;98962.53;5119198;27;20065;-62
2023/11/03 07:14:50;;;;;;;37.90;16.05;;;;;;;15.36;100.00;98977.63;5119861;27;20031;-62
2023/11/03 07:17:17;;;;;;;38.88;17.30;;;;;;;15.53;100.00;98976.94;5119954;27;20044;-63
2023/11/03 07:19:42;;;;;;;65.13;19.20;;;;;;;15.62;100.00;98970.38;5119402;27;20034;-63
2023/11/03 07:22:08;;;;;;;39.88;15.77;;;;;;;15.54;100.00;98953.72;5119891;27;20031;-61
2023/11/03 07:24:33;;;;;;;35.00;14.98;;;;;;;15.37;100.00;98942.72;5120014;27;20037;-61
2023/11/03 07:26:59;;;;;;;47.03;16.73;;;;;;;15.00;100.00;98946.97;5120032;27;20134;-63
2023/11/03 07:29:25;;;;;;;44.05;17.77;;;;;;;14.98;100.00;98954.38;5119119;27;20032;-62
2023/11/03 07:31:50;;;;;;;42.20;16.15;;;;;;;15.11;100.00;98946.31;5119645;27;20405;-62
2023/11/03 07:34:18;;;;;;;46.50;16.63;;;;;;;15.29;100.00;98949.13;5119694;27;20034;-63
2023/11/03 07:36:44;;;;;;;52.00;18.08;;;;;;;15.12;100.00;98949.81;5118660;27;20317;-62
2023/11/03 07:39:11;;;;;;;38.88;16.52;;;;;;;15.15;100.00;98950.22;5119758;27;20030;-62
2023/11/03 07:41:36;;;;;;;35.97;15.90;;;;;;;15.32;100.00;98948.69;5119119;27;20035;-63
2023/11/03 07:44:03;;;;;;;41.92;17.00;;;;;;;15.54;100.00;98943.06;5118388;27;20224;-62
2023/11/03 07:46:30;;;;;;;42.85;17.17;;;;;;;15.46;100.00;98936.13;5118304;27;20039;-62
2023/11/03 07:49:01;;;;;;;56.53;18.48;;;;;;;14.98;100.00;98901.06;5118581;27;20038;-63
2023/11/03 07:51:27;;;;;;;55.70;20.73;;;;;;;15.13;100.00;98911.44;5117247;27;20062;-63
2023/11/03 07:53:53;;;;;;;58.83;21.23;;;;;;;14.87;100.00;98907.03;5118417;27;20028;-64
2023/11/03 07:56:19;;;;;;;47.70;20.40;;;;;;;14.47;100.00;98911.59;5118280;27;20043;-63
2023/11/03 07:58:45;;;;;;;57.40;21.95;;;;;;;14.35;100.00;98914.06;5117695;27;20390;-63
2023/11/03 08:01:11;;;;;;;72.43;23.73;;;;;;;14.36;100.00;98907.69;5118721;27;20027;-63
2023/11/03 08:03:38;;;;;;;80.93;27.58;;;;;;;14.37;100.00;98910.16;5118498;27;20031;-63
2023/11/03 08:06:05;;;;;;;88.13;27.77;;;;;;;14.47;100.00;98892.97;5118284;27;20403;-64
2023/11/03 08:08:31;;;;;;;76.47;25.00;;;;;;;14.50;100.00;98893.38;5117124;27;20118;-63
2023/11/03 08:10:56;;;;;;;90.75;27.73;;;;;;;14.49;100.00;98898.91;5118486;27;20074;-64
2023/11/03 08:13:25;;;;;;;86.38;28.42;;;;;;;14.45;100.00;98900.34;5118399;27;20043;-64
2023/11/03 08:15:51;;;;;;;83.45;28.00;;;;;;;14.38;100.00;98890.50;5118778;27;20098;-64
2023/11/03 08:18:16;;;;;;;86.43;29.02;;;;;;;14.34;100.00;98904.41;5118313;27;20035;-64
2023/11/03 08:20:42;;;;;;;101.60;30.20;;;;;;;14.33;100.00;98900.94;5117283;27;20035;-64
2023/11/03 08:23:07;;;;;;;94.38;30.77;;;;;;;14.47;100.00;98907.09;5118671;27;20039;-63
2023/11/03 08:25:33;;;;;;;82.53;25.58;;;;;;;14.60;100.00;98908.94;5117482;27;20089;-64
2023/11/03 08:27:59;;;;;;;77.40;27.80;;;;;;;14.55;100.00;98911.38;5119342;27;20221;-64
2023/11/03 08:30:24;;;;;;;98.57;30.50;;;;;;;14.69;100.00;98923.69;5119358;27;20019;-64
2023/11/03 08:32:50;;;;;;;77.70;25.83;;;;;;;14.85;100.00;98917.91;5118608;27;20255;-63
2023/11/03 08:35:20;;;;;;;64.30;24.00;;;;;;;14.81;100.00;98919.34;5117661;27;20318;-61
2023/11/03 08:37:47;;;;;;;63.40;22.80;;;;;;;14.83;100.00;98921.81;5117600;27;20044;-62
2023/11/03 08:40:16;;;;;;;61.85;21.48;;;;;;;14.78;100.00;98910.97;5116747;28;20030;-62
2023/11/03 08:42:46;;;;;;;53.17;21.17;;;;;;;14.87;100.00;98902.53;5118325;27;20039;-63
2023/11/03 08:45:12;;;;;;;63.50;21.60;;;;;;;14.84;100.00;98894.94;5116852;27;20038;-64
2023/11/03 08:47:41;;;;;;;60.17;22.60;;;;;;;14.89;100.00;98889.81;5118335;27;20101;-63
2023/11/03 08:50:14;;;;;;;57.45;22.65;;;;;;;14.92;100.00;98892.06;5117825;27;20035;-63
2023/11/03 08:52:40;;;;;;;59.50;23.10;;;;;;;14.87;100.00;98886.53;5117609;28;20050;-63
2023/11/03 08:55:07;;;;;;;59.03;20.80;;;;;;;14.95;100.00;98880.97;5118840;28;20023;-62
2023/11/03 08:57:41;;;;;;;60.05;20.88;;;;;;;14.91;100.00;98868.28;5118391;28;20065;-62
2023/11/03 09:00:09;;;;;;;55.30;21.48;;;;;;;15.02;100.00;98856.94;5117631;28;20122;-63
2023/11/03 09:02:35;;;;;;;52.42;21.45;;;;;;;15.04;100.00;98859.41;5117730;28;20043;-63
2023/11/03 09:05:02;;;;;;;52.92;20.45;;;;;;;14.94;100.00;98854.53;5119260;27;20072;-62
2023/11/03 09:07:29;;;;;;;60.83;21.00;;;;;;;15.05;100.00;98856.53;5121991;27;20031;-62
2023/11/03 09:09:55;;;;;;;51.80;20.35;;;;;;;15.15;100.00;98848.06;5121802;27;20032;-62
2023/11/03 09:12:21;;;;;;;44.28;17.17;;;;;;;15.08;100.00;98860.59;5121350;27;20035;-63
2023/11/03 09:14:46;;;;;;;54.40;18.92;;;;;;;15.11;100.00;98865.53;5122043;27;20240;-62
2023/11/03 09:17:13;;;;;;;69.70;22.10;;;;;;;15.13;100.00;98842.13;5120820;27;20050;-62
2023/11/03 09:19:39;;;;;;;52.97;19.35;;;;;;;15.06;100.00;98831.50;5121993;27;20066;-63
2023/11/03 09:22:05;;;;;;;51.58;19.70;;;;;;;14.98;100.00;98795.25;5121784;27;20036;-63
2023/11/03 09:24:31;;;;;;;51.38;19.02;;;;;;;15.14;100.00;98833.91;5120615;27;20043;-63
2023/11/03 09:26:56;;;;;;;48.15;20.10;;;;;;;15.21;100.00;98832.03;5121864;27;20035;-63
2023/11/03 09:29:22;;;;;;;44.65;17.70;;;;;;;15.34;100.00;98820.47;5122923;27;20032;-64
2023/11/03 09:31:49;;;;;;;47.65;19.00;;;;;;;15.44;100.00;98815.47;5120850;27;20035;-62
2023/11/03 09:34:14;;;;;;;43.85;18.40;;;;;;;15.50;100.00;98814.59;5121933;27;20038;-63
2023/11/03 09:36:42;;;;;;;47.33;19.70;;;;;;;15.60;100.00;98817.66;5120513;27;20237;-62
2023/11/03 09:39:09;;;;;;;45.30;17.75;;;;;;;15.62;100.00;98817.44;5121798;27;20319;-63
2023/11/03 09:41:42;;;;;;;47.33;18.02;;;;;;;15.54;100.00;98809.66;5121405;27;20043;-63
2023/11/03 09:44:08;;;;;;;45.37;18.90;;;;;;;15.55;100.00;98804.09;5121891;27;20039;-62
2023/11/03 09:46:34;;;;;;;43.65;18.52;;;;;;;15.59;100.00;98796.50;5122149;27;20317;-63
2023/11/03 09:49:00;;;;;;;44.08;20.63;;;;;;;15.72;100.00;98795.63;5122052;27;21080;-62
2023/11/03 09:51:28;;;;;;;45.53;17.95;;;;;;;15.72;100.00;98785.75;5120733;27;20031;-62
2023/11/03 09:53:55;;;;;;;54.08;19.40;;;;;;;15.75;100.00;98796.00;5119919;27;20059;-62
2023/11/03 09:56:22;;;;;;;44.40;17.83;;;;;;;15.82;100.00;98794.09;5121049;27;20058;-63
2023/11/03 09:58:48;;;;;;;42.38;20.05;;;;;;;15.86;100.00;98773.94;5120880;27;20103;-63
2023/11/03 10:01:16;;;;;;;48.70;19.90;;;;;;;15.93;100.00;98768.53;5119694;27;20381;-63
2023/11/03 10:03:45;;;;;;;50.30;19.55;;;;;;;15.92;100.00;98762.38;5120721;27;20328;-63
2023/11/03 10:06:11;;;;;;;49.45;20.83;;;;;;;16.04;100.00;98756.31;5102223;27;20333;-62
2023/11/03 10:08:40;;;;;;;53.53;21.80;;;;;;;15.98;100.00;98766.00;5121201;27;20037;-62
2023/11/03 10:11:06;;;;;;;56.60;23.92;;;;;;;16.13;100.00;98768.31;5120818;27;20537;-63
2023/11/03 10:13:36;;;;;;;49.83;25.02;;;;;;;16.22;100.00;98761.66;5120824;27;20370;-62
2023/11/03 10:16:02;;;;;;;61.20;26.15;;;;;;;16.33;100.00;98765.44;5119581;27;20468;-63
2023/11/03 10:18:27;;;;;;;51.90;23.00;;;;;;;16.39;100.00;98770.72;5121455;27;20047;-63
2023/11/03 10:20:56;;;;;;;51.17;22.02;;;;;;;16.62;100.00;98770.03;5121581;27;20032;-63
2023/11/03 10:23:22;;;;;;;53.10;22.35;;;;;;;16.73;100.00;98768.50;5120715;27;20228;-62
2023/11/03 10:25:49;;;;;;;44.22;20.83;;;;;;;16.78;100.00;98755.28;5120900;27;20246;-63
2023/11/03 10:28:15;;;;;;;50.53;20.55;;;;;;;16.76;100.00;98741.34;5120933;27;20172;-63
2023/11/03 10:30:40;;;;;;;48.83;20.98;;;;;;;16.89;100.00;98749.16;5120794;27;20027;-63
2023/11/03 10:33:06;;;;;;;48.65;21.30;;;;;;;17.01;100.00;98747.34;5101213;28;20031;-63
2023/11/03 10:35:32;;;;;;;48.17;19.27;;;;;;;16.95;100.00;98732.22;5120110;27;20601;-64
2023/11/03 10:38:01;;;;;;;53.45;20.70;;;;;;;16.96;100.00;98733.84;5119725;27;20047;-63
2023/11/03 10:40:26;;;;;;;45.30;21.35;;;;;;;16.92;100.00;98730.00;5119192;27;20094;-64
2023/11/03 10:42:55;;;;;;;47.30;19.35;;;;;;;17.06;100.00;98725.28;5120994;27;20374;-64
2023/11/03 10:45:30;;;;;;;42.75;20.15;;;;;;;17.10;100.00;98715.75;5120593;27;20055;-65
2023/11/03 10:48:10;;;;;;;45.03;19.77;;;;;;;17.16;100.00;98707.63;5120502;27;20043;-65
2023/11/03 10:50:54;;;;;;;47.00;19.48;;;;;;;17.16;100.00;98696.09;5120471;27;20039;-64
2023/11/03 10:53:47;;;;;;;45.97;20.08;;;;;;;17.25;100.00;98705.44;5119386;27;20075;-64
2023/11/03 10:56:14;;;;;;;43.90;19.63;;;;;;;17.30;100.00;98702.88;5120303;27;20052;-64
2023/11/03 10:58:41;;;;;;;40.92;19.05;;;;;;;17.45;100.00;98697.06;5101343;28;20271;-64
2023/11/03 11:01:26;;;;;;;42.35;20.40;;;;;;;17.45;100.00;98705.91;5121207;27;20238;-64
2023/11/03 11:04:00;;;;;;;39.28;18.38;;;;;;;17.38;100.00;98694.50;5119331;27;20046;-64
2023/11/03 11:06:34;;;;;;;37.92;18.13;;;;;;;17.51;100.00;98714.88;5119409;27;20042;-62
2023/11/03 11:09:48;;;;;;;39.28;19.00;;;;;;;17.55;100.00;98695.44;5119400;27;20035;-65
2023/11/03 11:12:14;;;;;;;41.30;20.00;;;;;;;17.49;100.00;98687.53;5118299;27;20063;-64
2023/11/03 11:14:41;;;;;;;38.85;18.10;;;;;;;17.59;100.00;98689.63;5119219;27;20035;-64